Aviation Digital Data Service (ADDS)

Output produced by METARs form (1345 UTC 20 August 2017)
found at http://www.aviationweather.gov/adds/metars/
 
OOSA 201250Z 18009KT 9000 FEW008 SCT015 OVC025 27/25 Q1001 NOSIG
TAF OOSA 201140Z 2012/2118 18008KT 8000 FEW012 OVC025 
     BECMG 2016/2018 VRB03KT 5000 -DZ 
     PROB30 
     TEMPO 2020/2103 2500 DZ BR FEW006 BKN010 OVC018 
     BECMG 2106/2108 18010KT 8000 NSW FEW014 BKN025
       
OOMS 201250Z 04004KT 360V080 8000 NSC 30/26 Q1000 NOSIG
TAF OOMS 201100Z 2012/2118 06010KT 8000 NSC 
     BECMG 2016/2018 VRB03KT 
     PROB30 
     TEMPO 2022/2103 4000 BR BKN010 
     BECMG 2105/2107 03012KT